Lyngoy — LG9893 — position and weather

sailwx.info

Track history (hours):
 
Tides and Currents Weather Stations Pressure Air Temp Water Temp Dewpoint Dewpoint Depression Visibility Wind Speed Wind Dir Waves Ship Positions

Lyngoy

Last reported at 2018-May-23 15:36 UTC. Time now 2018-Jun-21 20:01 UTC.
Position N 69°39' E 018°58'.
Warning: this ship's position is 29 days out of date.

Length 14 m; draft 2 m.

Type: Pollution control. MMSI: 257994900.

Date/timePositionNaut miles runAvg speedWind from/ knotsBaromVisibWave heightAir tempDewpointWater temp
2018-May-23 15:36N 69°39' E 018°58'0 0.0
2018-May-23 15:30N 69°39' E 018°58'1010.4
2018-May-23 14:35N 69°49' E 019°01'0 0.9
2018-May-23 14:05N 69°48' E 019°02'116.9
2018-May-23 14:00N 69°47' E 019°03'816.2
2018-May-23 13:30N 69°39' E 018°58'0 0.3
2018-May-23 12:58N 69°39' E 018°58'0 0.0
2018-May-23 12:28N 69°39' E 018°58'2 4.2
2018-May-23 12:00N 69°41' E 018°60'3 5.3
2018-May-23 11:30N 69°43' E 019°04'1 1.1
2018-May-23 11:00N 69°44' E 019°04'0 0.9
2018-May-23 10:28N 69°44' E 019°04'1 1.5
2018-May-23 09:58N 69°43' E 019°04'1 2.0
2018-May-23 09:28N 69°42' E 019°04'1 1.0
2018-May-23 08:58N 69°43' E 019°04'0 1.0
2018-May-23 08:30N 69°42' E 019°04'0 0.8
2018-May-23 08:00N 69°42' E 019°03'0 0.5
2018-May-23 07:30N 69°42' E 019°04'2 3.6
2018-May-23 06:59N 69°41' E 018°60'0 0.1
2018-May-23 06:30N 69°41' E 018°60'0 0.0
2018-May-23 05:59N 69°41' E 018°60'2 4.0
2018-May-23 05:30N 69°39' E 018°58'0 0.0
2018-May-23 04:59N 69°39' E 018°58'0 0.0
2018-May-23 04:24N 69°39' E 018°58'0 0.0
2018-May-23 03:58N 69°39' E 018°58'0 0.0
2018-May-23 03:29N 69°39' E 018°58'0 0.0
2018-May-23 02:59N 69°39' E 018°58'0 0.0
2018-May-23 02:24N 69°39' E 018°58'0 0.0
2018-May-23 02:00N 69°39' E 018°58'0 0.0
2018-May-23 01:30N 69°39' E 018°58'0 0.0
2018-May-23 00:57N 69°39' E 018°58'0 0.0
2018-May-23 00:29N 69°39' E 018°58'0 0.0
2018-May-22 23:58N 69°39' E 018°58'0 0.0
2018-May-22 23:30N 69°39' E 018°58'0 0.0
2018-May-22 22:58N 69°39' E 018°58'0 0.0
2018-May-22 22:30N 69°39' E 018°58'0 0.0
2018-May-22 22:00N 69°39' E 018°58'0 0.0
2018-May-22 21:28N 69°39' E 018°58'0 0.0
2018-May-22 21:00N 69°39' E 018°58'0 0.0
2018-May-22 20:29N 69°39' E 018°58'0 0.0
2018-May-22 20:00N 69°39' E 018°58'0 0.0
2018-May-22 19:28N 69°39' E 018°58'0 0.0
2018-May-22 18:58N 69°39' E 018°58'0 0.0
2018-May-22 18:28N 69°39' E 018°58'0 0.0
2018-May-22 17:57N 69°39' E 018°58'0 0.0
2018-May-22 17:28N 69°39' E 018°58'0 0.0
2018-May-22 16:56N 69°39' E 018°58'2 4.2
2018-May-22 16:28N 69°41' E 018°60'0 0.0
2018-May-22 15:58N 69°41' E 018°60'0 0.0
2018-May-22 15:29N 69°41' E 018°60'0 0.0
2018-May-22 14:59N 69°41' E 018°60'0 0.1
2018-May-22 14:27N 69°41' E 018°60'0 0.1
2018-May-22 13:59N 69°41' E 018°60'0 0.0
2018-May-22 13:29N 69°41' E 018°60'0 0.0
2018-May-22 12:59N 69°41' E 018°60'1 1.3
2018-May-22 12:27N 69°41' E 019°02'1 1.4
2018-May-22 11:59N 69°41' E 019°01'0 0.5
2018-May-22 11:28N 69°41' E 018°60'0 0.0
2018-May-22 10:43N 69°41' E 018°60'0 0.2
2018-May-22 10:23N 69°41' E 018°60'0 0.1
2018-May-22 09:58N 69°41' E 018°60'0 0.0
2018-May-22 09:28N 69°41' E 018°60'0 0.0
2018-May-22 09:00N 69°41' E 018°60'0 0.0
2018-May-22 08:30N 69°41' E 018°60'0 0.0
2018-May-22 08:00N 69°41' E 018°60'0 0.0
2018-May-22 07:30N 69°41' E 018°60'612.0
2018-May-22 06:58N 69°46' E 019°10'  
Track history (hours):
 
Tides and Currents Weather Stations Pressure Air Temp Water Temp Dewpoint Dewpoint Depression Visibility Wind Speed Wind Dir Waves Ship Positions

Lyngoy

Last reported at 2018-May-23 15:36 UTC. Time now 2018-Jun-21 20:01 UTC.
Position N 69°39' E 018°58'.
Warning: this ship's position is 29 days out of date.

Length 14 m; draft 2 m.

Type: Pollution control. MMSI: 257994900.

Date/timePositionNaut miles runAvg speedWind from/ knotsBaromVisibWave heightAir tempDewpointWater temp
2018-May-23 15:36N 69°39' E 018°58'0 0.0
2018-May-23 15:30N 69°39' E 018°58'1010.4
2018-May-23 14:35N 69°49' E 019°01'0 0.9
2018-May-23 14:05N 69°48' E 019°02'116.9
2018-May-23 14:00N 69°47' E 019°03'816.2
2018-May-23 13:30N 69°39' E 018°58'0 0.3
2018-May-23 12:58N 69°39' E 018°58'0 0.0
2018-May-23 12:28N 69°39' E 018°58'2 4.2
2018-May-23 12:00N 69°41' E 018°60'3 5.3
2018-May-23 11:30N 69°43' E 019°04'1 1.1
2018-May-23 11:00N 69°44' E 019°04'0 0.9
2018-May-23 10:28N 69°44' E 019°04'1 1.5
2018-May-23 09:58N 69°43' E 019°04'1 2.0
2018-May-23 09:28N 69°42' E 019°04'1 1.0
2018-May-23 08:58N 69°43' E 019°04'0 1.0
2018-May-23 08:30N 69°42' E 019°04'0 0.8
2018-May-23 08:00N 69°42' E 019°03'0 0.5
2018-May-23 07:30N 69°42' E 019°04'2 3.6
2018-May-23 06:59N 69°41' E 018°60'0 0.1
2018-May-23 06:30N 69°41' E 018°60'0 0.0
2018-May-23 05:59N 69°41' E 018°60'2 4.0
2018-May-23 05:30N 69°39' E 018°58'0 0.0
2018-May-23 04:59N 69°39' E 018°58'0 0.0
2018-May-23 04:24N 69°39' E 018°58'0 0.0
2018-May-23 03:58N 69°39' E 018°58'0 0.0
2018-May-23 03:29N 69°39' E 018°58'0 0.0
2018-May-23 02:59N 69°39' E 018°58'0 0.0
2018-May-23 02:24N 69°39' E 018°58'0 0.0
2018-May-23 02:00N 69°39' E 018°58'0 0.0
2018-May-23 01:30N 69°39' E 018°58'0 0.0
2018-May-23 00:57N 69°39' E 018°58'0 0.0
2018-May-23 00:29N 69°39' E 018°58'0 0.0
2018-May-22 23:58N 69°39' E 018°58'0 0.0
2018-May-22 23:30N 69°39' E 018°58'0 0.0
2018-May-22 22:58N 69°39' E 018°58'0 0.0
2018-May-22 22:30N 69°39' E 018°58'0 0.0
2018-May-22 22:00N 69°39' E 018°58'0 0.0
2018-May-22 21:28N 69°39' E 018°58'0 0.0
2018-May-22 21:00N 69°39' E 018°58'0 0.0
2018-May-22 20:29N 69°39' E 018°58'0 0.0
2018-May-22 20:00N 69°39' E 018°58'0 0.0
2018-May-22 19:28N 69°39' E 018°58'0 0.0
2018-May-22 18:58N 69°39' E 018°58'0 0.0
2018-May-22 18:28N 69°39' E 018°58'0 0.0
2018-May-22 17:57N 69°39' E 018°58'0 0.0
2018-May-22 17:28N 69°39' E 018°58'0 0.0
2018-May-22 16:56N 69°39' E 018°58'2 4.2
2018-May-22 16:28N 69°41' E 018°60'0 0.0
2018-May-22 15:58N 69°41' E 018°60'0 0.0
2018-May-22 15:29N 69°41' E 018°60'0 0.0
2018-May-22 14:59N 69°41' E 018°60'0 0.1
2018-May-22 14:27N 69°41' E 018°60'0 0.1
2018-May-22 13:59N 69°41' E 018°60'0 0.0
2018-May-22 13:29N 69°41' E 018°60'0 0.0
2018-May-22 12:59N 69°41' E 018°60'1 1.3
2018-May-22 12:27N 69°41' E 019°02'1 1.4
2018-May-22 11:59N 69°41' E 019°01'0 0.5
2018-May-22 11:28N 69°41' E 018°60'0 0.0
2018-May-22 10:43N 69°41' E 018°60'0 0.2
2018-May-22 10:23N 69°41' E 018°60'0 0.1
2018-May-22 09:58N 69°41' E 018°60'0 0.0
2018-May-22 09:28N 69°41' E 018°60'0 0.0
2018-May-22 09:00N 69°41' E 018°60'0 0.0
2018-May-22 08:30N 69°41' E 018°60'0 0.0
2018-May-22 08:00N 69°41' E 018°60'0 0.0
2018-May-22 07:30N 69°41' E 018°60'612.0
2018-May-22 06:58N 69°46' E 019°10'  

Dump ship's entire track history